Time;durP1;ratioP1;P1;durP2;ratioP2;P2;SDS_P1;SDS_P2;PMS_P1;PMS_P2;Temp;Humidity;BMP_temperature;BMP_pressure;BME280_temperature;BME280_humidity;BME280_pressure;Samples;Min_cycle;Max_cycle;Signal;HPM_P1;HPM_P2
2022/01/13 00:00:34;;;;;;;101.15;29.80;;;5.00;99.90;;;;;;5093164;28;20054;-67
2022/01/13 00:02:59;;;;;;;100.63;29.92;;;5.10;99.90;;;;;;5092974;28;20079;-67
2022/01/13 00:05:30;;;;;;;102.60;27.40;;;5.10;99.90;;;;;;5111876;28;20717;-67
2022/01/13 00:07:57;;;;;;;94.18;28.15;;;5.10;99.90;;;;;;5093566;28;20036;-67
2022/01/13 00:10:24;;;;;;;96.03;27.40;;;5.20;99.90;;;;;;5111837;28;20428;-67
2022/01/13 00:12:58;;;;;;;97.47;27.88;;;5.20;99.90;;;;;;5092986;28;20051;-67
2022/01/13 00:15:40;;;;;;;96.53;27.05;;;5.20;99.90;;;;;;5111709;28;20097;-67
2022/01/13 00:18:15;;;;;;;104.47;26.08;;;5.10;99.90;;;;;;5093470;28;20082;-67
2022/01/13 00:26:13;;;;;;;86.88;23.95;;;5.20;99.90;;;;;;5093697;28;20055;-67
2022/01/13 00:28:39;;;;;;;91.57;25.83;;;5.20;99.90;;;;;;5111794;28;20039;-67
2022/01/13 00:31:06;;;;;;;88.10;24.10;;;5.20;99.90;;;;;;5111617;28;20412;-67
2022/01/13 00:33:32;;;;;;;89.85;25.25;;;5.20;99.90;;;;;;5111321;28;20452;-67
2022/01/13 00:36:00;;;;;;;81.22;23.77;;;5.20;99.90;;;;;;5093208;28;20074;-67
2022/01/13 00:38:30;;;;;;;100.47;25.40;;;5.20;99.90;;;;;;5111389;28;20102;-68
2022/01/13 00:40:56;;;;;;;89.45;24.52;;;5.20;99.90;;;;;;5111371;28;20043;-67
2022/01/13 00:43:22;;;;;;;90.63;24.38;;;5.20;99.90;;;;;;5092739;28;20040;-67
2022/01/13 00:45:49;;;;;;;91.72;26.20;;;5.10;99.90;;;;;;5111274;28;20035;-67
2022/01/13 00:48:16;;;;;;;97.25;23.55;;;5.20;99.90;;;;;;5092940;28;20042;-68
2022/01/13 00:50:42;;;;;;;95.45;24.20;;;5.20;99.90;;;;;;5093147;28;20052;-67
2022/01/13 00:53:08;;;;;;;92.68;25.73;;;5.20;99.90;;;;;;5092457;28;20488;-67
2022/01/13 00:55:47;;;;;;;81.13;24.38;;;5.20;99.90;;;;;;5076400;28;20047;-67
2022/01/13 00:58:12;;;;;;;85.85;23.60;;;5.20;99.90;;;;;;5092905;28;20123;-67
2022/01/13 01:00:38;;;;;;;94.53;23.10;;;5.20;99.90;;;;;;5092785;28;20131;-67
2022/01/13 01:03:04;;;;;;;84.57;25.70;;;5.30;99.90;;;;;;5113860;28;20035;-68
2022/01/13 01:05:32;;;;;;;89.38;24.45;;;5.30;99.90;;;;;;5115221;28;20031;-68
2022/01/13 01:07:58;;;;;;;80.93;22.27;;;5.20;99.90;;;;;;5096957;28;20071;-67
2022/01/13 01:10:23;;;;;;;84.28;23.60;;;5.30;99.90;;;;;;5115295;28;20102;-67
2022/01/13 01:12:49;;;;;;;80.93;23.95;;;5.30;99.90;;;;;;5096688;28;20092;-67
2022/01/13 01:15:15;;;;;;;79.70;23.42;;;5.30;99.90;;;;;;5096885;28;20055;-67
2022/01/13 01:17:46;;;;;;;87.30;22.00;;;5.30;99.90;;;;;;5096848;28;20051;-67
2022/01/13 01:20:13;;;;;;;75.67;21.43;;;5.30;99.90;;;;;;5096702;28;20048;-67
2022/01/13 01:22:56;;;;;;;81.47;23.40;;;5.30;99.90;;;;;;5096328;28;20058;-67
2022/01/13 01:27:57;;;;;;;77.82;20.30;;;5.30;99.90;;;;;;5096833;28;20055;-67
2022/01/13 01:30:31;;;;;;;73.00;21.00;;;5.40;99.90;;;;;;5114934;28;20121;-67
2022/01/13 01:32:57;;;;;;;85.25;21.83;;;5.40;99.90;;;;;;5114494;28;20115;-67
2022/01/13 01:35:26;;;;;;;87.45;23.40;;;5.40;99.90;;;;;;5096635;28;20169;-68
2022/01/13 01:37:52;;;;;;;86.05;20.75;;;5.40;99.90;;;;;;5114625;28;20058;-67
2022/01/13 01:40:18;;;;;;;70.40;20.00;;;5.40;99.90;;;;;;5096206;28;20043;-67
2022/01/13 01:42:46;;;;;;;65.25;19.38;;;5.40;99.90;;;;;;5095939;28;20734;-67
2022/01/13 01:45:12;;;;;;;61.40;17.85;;;5.40;99.90;;;;;;5096237;28;20048;-67
2022/01/13 01:47:38;;;;;;;77.38;20.80;;;5.40;99.90;;;;;;5096484;28;20403;-67
2022/01/13 01:50:16;;;;;;;76.10;19.65;;;5.40;99.90;;;;;;5114395;28;20130;-67
2022/01/13 01:52:42;;;;;;;67.82;18.48;;;5.40;99.90;;;;;;5095682;28;20059;-67
2022/01/13 01:55:09;;;;;;;68.40;17.63;;;5.50;99.90;;;;;;5114199;28;20393;-67
2022/01/13 01:57:35;;;;;;;73.13;19.17;;;5.50;99.90;;;;;;5096190;28;20040;-67
2022/01/13 02:00:02;;;;;;;69.68;16.98;;;5.50;99.90;;;;;;5095805;28;20487;-67
2022/01/13 02:02:29;;;;;;;67.93;19.85;;;5.50;99.90;;;;;;5095597;28;20040;-67
2022/01/13 02:04:54;;;;;;;56.40;17.15;;;5.50;99.90;;;;;;5114095;28;20114;-67
2022/01/13 02:07:20;;;;;;;71.00;19.20;;;5.40;99.90;;;;;;5095796;28;20470;-67
2022/01/13 02:09:51;;;;;;;61.88;17.52;;;5.50;99.90;;;;;;5114075;28;20507;-68
2022/01/13 02:12:28;;;;;;;65.47;16.27;;;5.50;99.90;;;;;;5095520;28;20442;-67
2022/01/13 02:17:37;;;;;;;52.75;16.60;;;5.50;99.90;;;;;;5095833;28;20051;-67
2022/01/13 02:20:04;;;;;;;54.50;16.77;;;5.50;99.90;;;;;;5095545;28;20094;-67
2022/01/13 02:22:30;;;;;;;65.82;16.58;;;5.50;99.90;;;;;;5095180;28;20048;-67
2022/01/13 02:24:56;;;;;;;64.30;17.48;;;5.50;99.90;;;;;;5095460;28;20087;-67
2022/01/13 02:27:21;;;;;;;57.28;16.40;;;5.50;99.90;;;;;;5095286;28;20039;-67
2022/01/13 02:29:48;;;;;;;59.70;15.20;;;5.50;99.90;;;;;;5095195;28;20031;-67
2022/01/13 02:32:14;;;;;;;64.63;17.27;;;5.60;99.90;;;;;;5113174;28;20794;-67
2022/01/13 02:34:40;;;;;;;57.78;15.98;;;5.60;99.90;;;;;;5095248;28;20526;-67
2022/01/13 02:37:05;;;;;;;53.35;16.38;;;5.60;99.90;;;;;;5095302;28;20067;-68
2022/01/13 02:39:32;;;;;;;58.30;15.65;;;5.50;99.90;;;;;;5095141;28;20071;-67
2022/01/13 02:41:59;;;;;;;58.17;14.85;;;5.50;99.90;;;;;;5094632;28;20035;-68
2022/01/13 02:44:25;;;;;;;53.40;14.10;;;5.60;99.90;;;;;;5113363;28;20035;-67
2022/01/13 02:49:20;;;;;;;58.15;15.98;;;5.50;99.90;;;;;;5113250;28;20047;-67
2022/01/13 02:51:48;;;;;;;52.78;15.77;;;5.60;99.90;;;;;;5094745;28;20058;-67
2022/01/13 02:54:14;;;;;;;59.10;15.02;;;5.50;99.90;;;;;;5094908;28;20040;-67
2022/01/13 02:56:41;;;;;;;51.60;14.82;;;5.50;99.90;;;;;;5094832;28;20054;-67
2022/01/13 02:59:07;;;;;;;67.88;16.30;;;5.50;99.90;;;;;;5094699;28;20089;-67
2022/01/13 03:01:33;;;;;;;48.45;13.75;;;5.60;99.90;;;;;;5094714;28;20624;-67
2022/01/13 03:04:04;;;;;;;49.80;14.00;;;5.50;99.90;;;;;;5094423;28;20108;-67
2022/01/13 03:06:35;;;;;;;50.55;14.45;;;5.50;99.90;;;;;;5094738;28;20051;-67
2022/01/13 03:09:04;;;;;;;44.80;13.77;;;5.60;99.90;;;;;;5112849;28;20043;-67
2022/01/13 03:11:33;;;;;;;46.95;14.93;;;5.50;99.90;;;;;;5094799;28;20059;-67
2022/01/13 03:13:59;;;;;;;54.22;15.63;;;5.50;99.90;;;;;;5112391;28;20639;-67
2022/01/13 03:16:25;;;;;;;51.75;15.23;;;5.50;99.90;;;;;;5112861;28;20043;-67
2022/01/13 03:18:51;;;;;;;52.50;14.70;;;5.50;99.90;;;;;;5094408;28;20047;-67
2022/01/13 03:21:17;;;;;;;51.47;14.23;;;5.50;99.90;;;;;;5094347;28;20130;-67
2022/01/13 03:23:43;;;;;;;52.45;15.88;;;5.60;99.90;;;;;;5094111;28;20517;-67
2022/01/13 03:26:09;;;;;;;55.58;14.32;;;5.50;99.90;;;;;;5093317;28;20079;-67
2022/01/13 03:28:39;;;;;;;51.72;14.15;;;5.60;99.90;;;;;;5094178;28;20119;-67
2022/01/13 03:31:07;;;;;;;51.92;15.02;;;5.60;99.90;;;;;;5094297;28;20047;-67
2022/01/13 03:33:33;;;;;;;44.58;14.73;;;5.50;99.90;;;;;;5093697;28;20048;-67
2022/01/13 03:35:59;;;;;;;50.15;14.80;;;5.50;99.90;;;;;;5094009;28;20040;-67
2022/01/13 03:38:26;;;;;;;49.17;14.75;;;5.50;99.90;;;;;;5094362;28;20418;-67
2022/01/13 03:40:52;;;;;;;54.22;15.57;;;5.60;99.90;;;;;;5093976;28;20048;-67
2022/01/13 03:43:18;;;;;;;51.53;14.00;;;5.50;99.90;;;;;;5093653;28;20047;-67
2022/01/13 03:45:45;;;;;;;47.33;13.93;;;5.50;99.90;;;;;;5094066;28;20043;-67
2022/01/13 03:48:13;;;;;;;45.20;14.07;;;5.50;99.90;;;;;;5093933;28;20032;-67
2022/01/13 03:50:42;;;;;;;48.10;13.10;;;5.50;99.90;;;;;;5112130;28;20092;-67
2022/01/13 03:53:34;;;;;;;46.50;13.07;;;5.40;99.90;;;;;;5093513;28;20618;-67
2022/01/13 03:56:24;;;;;;;52.33;12.68;;;5.50;99.90;;;;;;5093967;28;20059;-67
2022/01/13 03:59:28;;;;;;;35.10;11.85;;;5.50;99.90;;;;;;5093524;28;20503;-67
2022/01/13 04:02:10;;;;;;;44.42;14.45;;;5.50;99.90;;;;;;5093607;28;20284;-67
2022/01/13 04:04:47;;;;;;;41.47;13.20;;;5.50;99.90;;;;;;5093648;28;20046;-67
2022/01/13 04:07:17;;;;;;;37.83;11.77;;;5.50;99.90;;;;;;5093382;28;20075;-68
2022/01/13 04:09:43;;;;;;;40.40;13.45;;;5.50;99.90;;;;;;5093501;28;20096;-67
2022/01/13 04:12:11;;;;;;;45.88;12.65;;;5.50;99.90;;;;;;5093121;28;20055;-67
2022/01/13 04:17:07;;;;;;;40.97;12.52;;;5.50;99.90;;;;;;5093081;28;20043;-67
2022/01/13 04:19:32;;;;;;;43.80;12.88;;;5.50;99.90;;;;;;5093294;28;20118;-67
2022/01/13 04:21:58;;;;;;;42.15;13.23;;;5.50;99.90;;;;;;5092927;28;20048;-67
2022/01/13 04:24:24;;;;;;;44.97;12.65;;;5.50;99.90;;;;;;5093250;28;20044;-67
2022/01/13 04:26:50;;;;;;;43.08;13.25;;;5.50;99.90;;;;;;5093570;28;20517;-67
2022/01/13 04:29:27;;;;;;;36.35;11.90;;;5.50;99.90;;;;;;5093184;28;20100;-67
2022/01/13 04:31:52;;;;;;;37.63;12.40;;;5.40;99.90;;;;;;5092806;28;20549;-67
2022/01/13 04:34:18;;;;;;;36.13;12.32;;;5.50;99.90;;;;;;5093055;28;20047;-67
2022/01/13 04:36:45;;;;;;;38.92;12.77;;;5.40;99.90;;;;;;5092936;28;20126;-67
2022/01/13 04:39:12;;;;;;;35.38;13.20;;;5.50;99.90;;;;;;5093160;28;20040;-67
2022/01/13 04:41:39;;;;;;;38.22;13.15;;;5.50;99.90;;;;;;5092998;28;20043;-68
2022/01/13 04:44:10;;;;;;;32.35;11.82;;;5.40;99.90;;;;;;5092818;28;20043;-67
2022/01/13 04:46:36;;;;;;;36.50;11.60;;;5.40;99.90;;;;;;5093065;28;20047;-67
2022/01/13 04:49:04;;;;;;;41.33;14.18;;;5.40;99.90;;;;;;5111357;28;20047;-67
2022/01/13 04:51:30;;;;;;;44.38;13.07;;;5.40;99.90;;;;;;5093027;28;20187;-67
2022/01/13 04:53:56;;;;;;;35.22;12.63;;;5.40;99.90;;;;;;5092692;28;20040;-67
2022/01/13 04:56:38;;;;;;;42.08;12.77;;;5.40;99.90;;;;;;5093042;28;20043;-67
2022/01/13 04:59:05;;;;;;;34.35;11.80;;;5.40;99.90;;;;;;5111148;28;20051;-67
2022/01/13 05:01:31;;;;;;;39.03;14.35;;;5.40;99.90;;;;;;5111125;28;20078;-68
2022/01/13 05:03:57;;;;;;;37.60;13.57;;;5.40;99.90;;;;;;5092930;28;20063;-67
2022/01/13 05:06:22;;;;;;;34.03;12.40;;;5.40;99.90;;;;;;5110800;28;20118;-67
2022/01/13 05:08:49;;;;;;;41.75;13.27;;;5.40;99.90;;;;;;5093001;28;20043;-67
2022/01/13 05:11:16;;;;;;;35.42;12.77;;;5.40;99.90;;;;;;5092852;28;20491;-67
2022/01/13 05:13:43;;;;;;;42.72;13.55;;;5.40;99.90;;;;;;5110817;28;20487;-68
2022/01/13 05:16:17;;;;;;;31.63;13.00;;;5.30;99.90;;;;;;5110553;28;20059;-67
2022/01/13 05:19:30;;;;;;;38.47;12.82;;;5.40;99.90;;;;;;5110981;28;20044;-68
2022/01/13 05:24:15;;;;;;;30.00;12.18;;;5.40;99.90;;;;;;5110920;28;20044;-67
2022/01/13 05:26:41;;;;;;;34.55;12.50;;;5.40;99.90;;;;;;5092718;28;20579;-67
2022/01/13 05:29:07;;;;;;;37.50;13.32;;;5.40;99.90;;;;;;5092626;28;20385;-67
2022/01/13 05:31:32;;;;;;;31.75;12.38;;;5.30;99.90;;;;;;5092603;28;20044;-67
2022/01/13 05:33:58;;;;;;;39.65;12.07;;;5.30;99.90;;;;;;5092361;28;20050;-67
2022/01/13 05:36:23;;;;;;;31.67;11.52;;;5.30;99.90;;;;;;5092895;28;20178;-67
2022/01/13 05:38:50;;;;;;;33.95;12.18;;;5.30;99.90;;;;;;5092517;28;20047;-67
2022/01/13 05:41:15;;;;;;;35.88;12.77;;;5.30;99.90;;;;;;5110881;28;20046;-67
2022/01/13 05:43:41;;;;;;;30.10;11.35;;;5.30;99.90;;;;;;5092200;28;20039;-68
2022/01/13 05:46:07;;;;;;;34.53;12.90;;;5.30;99.90;;;;;;5110721;28;20518;-67
2022/01/13 05:48:32;;;;;;;34.42;13.38;;;5.30;99.90;;;;;;5093395;28;20051;-67
2022/01/13 05:50:59;;;;;;;33.65;12.13;;;5.30;99.90;;;;;;5096010;28;20054;-67
2022/01/13 05:53:24;;;;;;;38.05;12.18;;;5.20;99.90;;;;;;5096058;28;20564;-67
2022/01/13 05:55:50;;;;;;;38.70;13.15;;;5.20;99.90;;;;;;5096035;28;20043;-67
2022/01/13 05:58:16;;;;;;;46.15;14.73;;;5.20;99.90;;;;;;5096002;28;20043;-67
2022/01/13 06:00:41;;;;;;;45.10;14.40;;;5.30;99.90;;;;;;5114134;28;20113;-67
2022/01/13 06:03:07;;;;;;;44.38;13.90;;;5.30;99.90;;;;;;5113841;28;20437;-67
2022/01/13 06:05:35;;;;;;;46.10;13.93;;;5.20;99.90;;;;;;5096073;28;20049;-67
2022/01/13 06:08:00;;;;;;;38.10;13.23;;;5.30;99.90;;;;;;5095893;28;20043;-67
2022/01/13 06:10:26;;;;;;;40.20;14.05;;;5.30;99.90;;;;;;5095794;28;20477;-67
2022/01/13 06:12:52;;;;;;;38.85;15.20;;;5.20;99.90;;;;;;5113574;28;20036;-67
2022/01/13 06:15:23;;;;;;;34.63;13.93;;;5.30;99.90;;;;;;5095837;28;20488;-68
2022/01/13 06:17:52;;;;;;;43.78;14.20;;;5.30;99.90;;;;;;5095319;28;20039;-68
2022/01/13 06:20:18;;;;;;;52.15;14.25;;;5.20;99.90;;;;;;5113754;28;20049;-67
2022/01/13 06:22:46;;;;;;;46.42;14.02;;;5.10;99.90;;;;;;5113400;28;20039;-67
2022/01/13 06:25:12;;;;;;;43.70;14.68;;;5.20;99.90;;;;;;5095555;28;20092;-67
2022/01/13 06:27:39;;;;;;;36.60;13.20;;;5.30;99.90;;;;;;5095364;28;20040;-67
2022/01/13 06:30:07;;;;;;;37.90;11.73;;;5.30;99.90;;;;;;5113632;28;20044;-68
2022/01/13 06:32:33;;;;;;;35.50;12.90;;;5.30;99.90;;;;;;5094954;28;20071;-67
2022/01/13 06:34:58;;;;;;;43.80;14.75;;;5.30;99.90;;;;;;5095285;28;20487;-68
2022/01/13 06:37:24;;;;;;;39.33;13.18;;;5.30;99.90;;;;;;5113408;28;20043;-67
2022/01/13 06:39:49;;;;;;;40.63;12.75;;;5.20;99.90;;;;;;5094921;28;20066;-67
2022/01/13 06:42:16;;;;;;;45.47;13.73;;;5.30;99.90;;;;;;5113108;28;20032;-67
2022/01/13 06:44:42;;;;;;;37.25;12.13;;;5.20;99.90;;;;;;5095300;28;20044;-67
2022/01/13 06:47:08;;;;;;;41.47;14.45;;;5.20;99.90;;;;;;5095131;28;20050;-68
2022/01/13 06:49:33;;;;;;;40.72;12.60;;;5.20;99.90;;;;;;5095153;28;20044;-67
2022/01/13 06:51:59;;;;;;;37.05;13.45;;;5.30;99.90;;;;;;5094697;28;20595;-67
2022/01/13 06:54:25;;;;;;;41.05;13.43;;;5.20;99.90;;;;;;5094660;28;20039;-67
2022/01/13 06:56:52;;;;;;;36.80;12.60;;;5.30;99.90;;;;;;5113569;28;20038;-67
2022/01/13 06:59:19;;;;;;;38.97;14.25;;;5.30;99.90;;;;;;5094631;28;20115;-67
2022/01/13 07:01:46;;;;;;;40.85;13.43;;;5.30;99.90;;;;;;5094840;28;20377;-68
2022/01/13 07:04:13;;;;;;;42.88;14.02;;;5.30;99.90;;;;;;5112627;28;20043;-68
2022/01/13 07:06:40;;;;;;;40.70;13.63;;;5.30;99.90;;;;;;5094701;28;20069;-67
2022/01/13 07:09:09;;;;;;;50.22;13.98;;;5.30;99.90;;;;;;5112927;28;20055;-68
2022/01/13 07:11:35;;;;;;;41.70;13.70;;;5.30;99.90;;;;;;5094527;28;20089;-67
2022/01/13 07:14:01;;;;;;;39.08;13.73;;;5.20;99.90;;;;;;5094220;28;20051;-68
2022/01/13 07:16:27;;;;;;;39.78;12.88;;;5.20;99.90;;;;;;5094599;28;20496;-67
2022/01/13 07:18:53;;;;;;;37.75;13.48;;;5.20;99.90;;;;;;5094617;28;20043;-67
2022/01/13 07:21:21;;;;;;;40.78;13.50;;;5.30;99.90;;;;;;5094723;28;20051;-67
2022/01/13 07:23:47;;;;;;;40.95;13.88;;;5.30;99.90;;;;;;5094056;28;20047;-67
2022/01/13 07:26:12;;;;;;;44.60;14.88;;;5.30;99.90;;;;;;5094299;28;20089;-67
2022/01/13 07:28:38;;;;;;;43.05;15.07;;;5.30;99.90;;;;;;5112540;28;20399;-68
2022/01/13 07:31:04;;;;;;;44.28;12.73;;;5.30;99.90;;;;;;5094167;28;20043;-67
2022/01/13 07:33:30;;;;;;;40.92;14.63;;;5.20;99.90;;;;;;5111929;28;20740;-67
2022/01/13 07:35:55;;;;;;;42.22;14.57;;;5.30;99.90;;;;;;5112323;28;20031;-68
2022/01/13 07:38:21;;;;;;;44.30;13.63;;;5.30;99.90;;;;;;5094131;28;20044;-67
2022/01/13 07:40:47;;;;;;;39.45;14.40;;;5.30;99.90;;;;;;5124923;27;20372;-67
2022/01/13 07:43:16;;;;;;;40.70;13.40;;;5.20;99.90;;;;;;5113248;27;20035;-67
2022/01/13 07:45:41;;;;;;;43.42;14.00;;;5.30;99.90;;;;;;5132651;27;20067;-67
2022/01/13 07:48:07;;;;;;;44.35;13.38;;;5.30;99.90;;;;;;5114396;27;20616;-67
2022/01/13 07:50:33;;;;;;;41.13;13.52;;;5.20;99.90;;;;;;5114259;27;20039;-67
2022/01/13 07:52:58;;;;;;;38.22;12.70;;;5.30;99.90;;;;;;5114233;27;20089;-67
2022/01/13 07:55:25;;;;;;;52.05;14.23;;;5.30;99.90;;;;;;5129803;27;20027;-67
2022/01/13 07:57:50;;;;;;;36.78;13.65;;;5.30;99.90;;;;;;5129714;27;20043;-67
2022/01/13 08:00:16;;;;;;;41.22;13.73;;;5.30;99.90;;;;;;5112172;27;20043;-67
2022/01/13 08:02:42;;;;;;;41.15;13.98;;;5.30;99.90;;;;;;5113748;27;20075;-67
2022/01/13 08:05:08;;;;;;;40.80;14.43;;;5.30;99.90;;;;;;5096452;27;20039;-67
2022/01/13 08:07:34;;;;;;;44.25;14.25;;;5.30;99.90;;;;;;5113253;27;20039;-67
2022/01/13 08:10:00;;;;;;;46.28;13.30;;;5.20;99.90;;;;;;5096435;27;20062;-67
2022/01/13 08:12:26;;;;;;;37.47;13.95;;;5.30;99.90;;;;;;5112752;27;20434;-67
2022/01/13 08:14:51;;;;;;;37.88;14.10;;;5.40;99.90;;;;;;5114139;27;20042;-67
2022/01/13 08:20:03;;;;;;;40.42;13.18;;;5.20;99.90;;;;;;5113761;27;20588;-67
2022/01/13 08:22:29;;;;;;;39.60;12.95;;;5.30;99.90;;;;;;5113204;27;20053;-67
2022/01/13 08:24:54;;;;;;;39.05;14.10;;;5.30;99.90;;;;;;5113882;27;20664;-67
2022/01/13 08:27:20;;;;;;;38.83;12.85;;;5.30;99.90;;;;;;5113743;27;20518;-67
2022/01/13 08:29:46;;;;;;;35.50;12.75;;;5.40;99.90;;;;;;5132200;27;20544;-67
2022/01/13 08:32:11;;;;;;;36.42;13.60;;;5.30;99.90;;;;;;5131737;27;20039;-67
2022/01/13 08:34:37;;;;;;;43.28;13.27;;;5.40;99.90;;;;;;5113659;28;20142;-67
2022/01/13 08:37:03;;;;;;;35.92;12.95;;;5.40;99.90;;;;;;5096715;28;20438;-67
2022/01/13 08:39:28;;;;;;;35.40;14.15;;;5.30;99.90;;;;;;5113473;28;20045;-67
2022/01/13 08:41:54;;;;;;;38.92;12.75;;;5.30;99.90;;;;;;5113608;27;20098;-67
2022/01/13 08:44:19;;;;;;;37.88;12.88;;;5.30;99.90;;;;;;5113596;28;20035;-67
2022/01/13 08:46:45;;;;;;;37.05;13.70;;;5.30;99.90;;;;;;5113528;28;20039;-67
2022/01/13 08:49:11;;;;;;;41.30;13.68;;;5.40;99.90;;;;;;5113567;28;20068;-67
2022/01/13 08:51:37;;;;;;;37.55;12.98;;;5.40;99.90;;;;;;5113081;28;20043;-67
2022/01/13 08:54:03;;;;;;;33.67;13.23;;;5.40;99.90;;;;;;5130927;27;20113;-67
2022/01/13 08:56:28;;;;;;;38.53;13.27;;;5.30;99.90;;;;;;5112626;28;20601;-67
2022/01/13 08:58:54;;;;;;;39.58;12.82;;;5.40;99.90;;;;;;5113481;28;20039;-67
2022/01/13 09:01:21;;;;;;;52.67;15.20;;;5.40;99.90;;;;;;5113759;28;20082;-68
2022/01/13 09:03:47;;;;;;;42.30;13.90;;;5.40;99.90;;;;;;5112519;28;20058;-68
2022/01/13 09:06:13;;;;;;;40.70;13.90;;;5.40;99.90;;;;;;5131707;28;20043;-68
2022/01/13 09:08:39;;;;;;;41.45;13.52;;;5.40;99.90;;;;;;5113588;28;20506;-67
2022/01/13 09:11:05;;;;;;;38.80;12.60;;;5.40;99.90;;;;;;5113189;28;20046;-68
2022/01/13 09:13:36;;;;;;;38.20;13.13;;;5.40;99.90;;;;;;5112863;28;20047;-67
2022/01/13 09:16:02;;;;;;;42.38;13.80;;;5.40;99.90;;;;;;5113314;28;20083;-67
2022/01/13 09:18:58;;;;;;;39.67;13.80;;;5.40;99.90;;;;;;5131662;28;20043;-67
2022/01/13 09:21:20;;;;;;;42.22;13.15;;;5.50;99.90;;;;;;5131476;28;20423;-67
2022/01/13 09:23:46;;;;;;;43.80;13.43;;;5.50;99.90;;;;;;5113767;27;20039;-67
2022/01/13 09:26:12;;;;;;;44.60;12.55;;;5.40;99.90;;;;;;5117276;27;20054;-67
2022/01/13 09:28:37;;;;;;;44.08;15.25;;;5.40;99.90;;;;;;5116997;27;20110;-67
2022/01/13 09:31:04;;;;;;;38.25;13.52;;;5.40;99.90;;;;;;5117325;27;20035;-67
2022/01/13 09:33:29;;;;;;;43.00;15.02;;;5.50;99.90;;;;;;5116436;27;20051;-68
2022/01/13 09:35:55;;;;;;;40.80;13.88;;;5.50;99.90;;;;;;5100385;27;20114;-67
2022/01/13 09:38:21;;;;;;;43.58;13.75;;;5.50;99.90;;;;;;5117011;27;20039;-68
2022/01/13 09:40:52;;;;;;;43.35;14.02;;;5.50;99.90;;;;;;5099866;27;20047;-67
2022/01/13 09:43:20;;;;;;;38.42;14.32;;;5.50;99.90;;;;;;5116498;27;20043;-67
2022/01/13 09:45:47;;;;;;;44.88;14.45;;;5.60;99.90;;;;;;5117044;27;20134;-67
2022/01/13 09:48:13;;;;;;;41.03;14.57;;;5.50;99.90;;;;;;5100114;27;20114;-67
2022/01/13 09:50:40;;;;;;;45.38;14.80;;;5.60;99.90;;;;;;5099894;27;20631;-67
2022/01/13 09:53:07;;;;;;;44.00;14.07;;;5.60;99.90;;;;;;5134519;27;20054;-67
2022/01/13 09:55:33;;;;;;;43.38;15.25;;;5.60;99.90;;;;;;5116874;27;20047;-67
2022/01/13 09:58:03;;;;;;;45.13;13.70;;;5.70;99.90;;;;;;5116334;27;20039;-68
2022/01/13 10:00:29;;;;;;;45.20;15.77;;;5.60;99.90;;;;;;5116526;27;20051;-67
2022/01/13 10:02:55;;;;;;;47.10;16.48;;;5.60;99.90;;;;;;5115900;27;20055;-68
2022/01/13 10:05:23;;;;;;;47.42;13.80;;;5.70;99.90;;;;;;5134957;27;20368;-67
2022/01/13 10:07:50;;;;;;;46.50;14.93;;;5.70;99.90;;;;;;5121702;27;20045;-67
2022/01/13 10:10:24;;;;;;;50.30;14.75;;;5.70;99.90;;;;;;5121269;27;20114;-67
2022/01/13 10:13:02;;;;;;;40.45;13.10;;;5.70;99.90;;;;;;5116024;27;20047;-68
2022/01/13 10:18:42;;;;;;;43.13;15.07;;;5.80;99.90;;;;;;5116244;27;20566;-69
2022/01/13 10:21:13;;;;;;;48.80;14.27;;;5.80;99.90;;;;;;5116241;27;20407;-69
2022/01/13 10:23:59;;;;;;;52.28;15.38;;;5.70;99.90;;;;;;5115876;27;20399;-70
2022/01/13 10:26:25;;;;;;;47.90;14.07;;;5.70;99.90;;;;;;5134478;27;20043;-69
2022/01/13 10:28:52;;;;;;;54.05;14.65;;;5.70;99.90;;;;;;5115974;27;20161;-70
2022/01/13 10:31:17;;;;;;;55.80;15.07;;;5.70;99.90;;;;;;5115981;27;20035;-70
2022/01/13 10:33:43;;;;;;;42.97;14.27;;;5.80;99.90;;;;;;5115729;27;20398;-70
2022/01/13 10:36:11;;;;;;;42.25;13.73;;;5.80;99.90;;;;;;5133618;27;20078;-69
2022/01/13 10:38:57;;;;;;;49.42;14.93;;;5.70;99.90;;;;;;5115611;27;20053;-70
2022/01/13 10:41:38;;;;;;;44.80;13.60;;;5.70;99.90;;;;;;5115639;27;20051;-70
2022/01/13 10:44:22;;;;;;;43.75;14.13;;;5.80;99.90;;;;;;5115667;27;20472;-70
2022/01/13 10:46:59;;;;;;;45.13;15.18;;;5.80;99.90;;;;;;5133996;27;20046;-70
2022/01/13 10:49:37;;;;;;;37.90;13.88;;;5.80;99.90;;;;;;5115541;27;20160;-70
2022/01/13 10:52:26;;;;;;;38.33;13.52;;;5.80;99.90;;;;;;5115370;27;20043;-70
2022/01/13 10:55:03;;;;;;;46.20;15.70;;;5.80;99.90;;;;;;5115373;27;20085;-70
2022/01/13 10:57:30;;;;;;;41.45;14.30;;;5.80;99.90;;;;;;5115326;27;20043;-70
2022/01/13 10:59:56;;;;;;;43.20;14.90;;;5.90;99.90;;;;;;5115237;27;20122;-70
2022/01/13 11:02:22;;;;;;;48.45;15.77;;;5.90;99.90;;;;;;5114801;27;20047;-70
2022/01/13 11:04:48;;;;;;;38.88;13.77;;;5.90;99.90;;;;;;5133077;27;20088;-69
2022/01/13 11:07:16;;;;;;;44.85;14.93;;;5.90;99.90;;;;;;5115025;27;20047;-70
2022/01/13 11:09:46;;;;;;;42.47;14.77;;;5.90;99.90;;;;;;5115059;27;20043;-69
2022/01/13 11:12:14;;;;;;;42.22;14.82;;;5.90;99.90;;;;;;5114637;27;20095;-70
2022/01/13 11:14:43;;;;;;;43.08;14.00;;;5.90;99.90;;;;;;5114974;27;20057;-70
2022/01/13 11:17:12;;;;;;;39.17;13.32;;;5.90;99.90;;;;;;5114962;27;20058;-70
2022/01/13 11:19:44;;;;;;;43.80;14.63;;;5.90;99.90;;;;;;5114779;27;20043;-70
2022/01/13 11:22:12;;;;;;;45.65;16.33;;;6.00;99.90;;;;;;5114389;27;20053;-69
2022/01/13 11:24:38;;;;;;;46.50;14.25;;;6.00;99.90;;;;;;5114805;27;20039;-69
2022/01/13 11:27:05;;;;;;;48.00;14.35;;;6.00;99.90;;;;;;5133176;27;20043;-70
2022/01/13 11:29:31;;;;;;;47.50;14.18;;;6.00;99.90;;;;;;5114663;27;20047;-69
2022/01/13 11:31:57;;;;;;;39.97;12.95;;;5.90;99.90;;;;;;5114275;27;20091;-70
2022/01/13 11:34:24;;;;;;;39.85;13.30;;;5.90;99.90;;;;;;5114704;27;20178;-70
2022/01/13 11:36:50;;;;;;;45.92;14.90;;;6.00;99.90;;;;;;5114849;27;20059;-70
2022/01/13 11:39:16;;;;;;;39.10;14.35;;;6.00;99.90;;;;;;5114608;27;20419;-70
2022/01/13 11:42:05;;;;;;;44.03;14.65;;;6.00;99.90;;;;;;5114541;27;20039;-69
2022/01/13 11:44:33;;;;;;;38.80;16.00;;;6.00;99.90;;;;;;5114660;27;20517;-70
2022/01/13 11:46:58;;;;;;;42.13;14.93;;;6.00;99.90;;;;;;5113737;27;20073;-70
2022/01/13 11:49:40;;;;;;;43.47;14.05;;;6.00;99.90;;;;;;5114694;27;20097;-70
2022/01/13 11:52:26;;;;;;;44.95;15.57;;;6.00;99.90;;;;;;5114143;27;20043;-70
2022/01/13 11:54:52;;;;;;;40.63;15.23;;;6.00;99.90;;;;;;5114334;27;20067;-69
2022/01/13 11:57:21;;;;;;;50.25;16.73;;;5.90;99.90;;;;;;5114054;27;20088;-69
2022/01/13 11:59:56;;;;;;;42.55;14.25;;;6.00;99.90;;;;;;5096768;27;20039;-69
2022/01/13 12:02:28;;;;;;;39.92;15.25;;;5.90;99.90;;;;;;5113965;27;20035;-69
2022/01/13 12:05:04;;;;;;;44.22;15.25;;;6.30;99.90;;;;;;5113474;27;20067;-69
2022/01/13 12:07:44;;;;;;;47.88;14.98;;;6.40;99.90;;;;;;5113908;27;20039;-68
2022/01/13 12:10:30;;;;;;;40.90;15.65;;;6.30;99.90;;;;;;5113985;27;20051;-69
2022/01/13 12:12:56;;;;;;;41.10;13.40;;;6.30;99.90;;;;;;5096499;27;20043;-69
2022/01/13 12:15:22;;;;;;;47.92;15.85;;;6.40;99.90;;;;;;5113724;27;20111;-69
2022/01/13 12:17:50;;;;;;;41.97;15.13;;;6.40;99.90;;;;;;5097085;27;20073;-69
2022/01/13 12:20:20;;;;;;;42.22;15.18;;;6.40;99.90;;;;;;5113751;27;20043;-67
2022/01/13 12:22:55;;;;;;;46.67;15.07;;;6.30;99.90;;;;;;5096640;27;20118;-66
2022/01/13 12:25:21;;;;;;;44.72;15.88;;;6.40;99.90;;;;;;5113679;27;20039;-66
2022/01/13 12:27:51;;;;;;;40.22;15.63;;;6.40;99.90;;;;;;5113337;27;20062;-66
2022/01/13 12:30:18;;;;;;;47.17;14.88;;;6.30;99.90;;;;;;5131945;27;20493;-66
2022/01/13 12:32:47;;;;;;;39.08;14.57;;;6.30;99.90;;;;;;5113118;27;20043;-66
2022/01/13 12:35:34;;;;;;;42.13;15.02;;;6.30;99.90;;;;;;5113519;27;20039;-66
2022/01/13 12:38:03;;;;;;;45.80;15.27;;;6.30;99.90;;;;;;5132040;27;20035;-66
2022/01/13 12:40:40;;;;;;;42.28;15.05;;;6.30;99.90;;;;;;5113411;27;20057;-66
2022/01/13 12:46:07;;;;;;;47.95;15.45;;;6.30;99.90;;;;;;5131942;28;20047;-67
2022/01/13 12:48:33;;;;;;;42.05;15.02;;;6.30;99.90;;;;;;5096357;28;20109;-67
2022/01/13 12:50:59;;;;;;;43.90;14.60;;;6.40;99.90;;;;;;5113465;28;20047;-67
2022/01/13 12:53:29;;;;;;;46.92;15.95;;;6.30;99.90;;;;;;5113102;28;20035;-67
2022/01/13 12:56:06;;;;;;;44.58;15.65;;;6.30;99.90;;;;;;5096870;28;20126;-67
2022/01/13 12:58:35;;;;;;;45.22;15.93;;;6.40;99.90;;;;;;5134468;27;20135;-67
2022/01/13 13:01:08;;;;;;;43.08;16.20;;;6.30;99.90;;;;;;5117509;27;20070;-67
2022/01/13 13:03:34;;;;;;;46.92;15.27;;;6.30;99.90;;;;;;5116464;27;20045;-66
2022/01/13 13:06:00;;;;;;;42.15;14.98;;;6.50;99.90;;;;;;5135917;27;20050;-66
2022/01/13 13:08:27;;;;;;;46.45;15.63;;;6.40;99.90;;;;;;5117377;27;20107;-66